sensor_id;sensor_type;location;lat;lon;timestamp;P1;durP1;ratioP1;P2;durP2;ratioP2
57752;SDS011;43583;53.132;6.574;2023-04-25T00:00:59;13.65;;;1.35;;
57752;SDS011;43583;53.132;6.574;2023-04-25T00:03:24;13.82;;;1.50;;
57752;SDS011;43583;53.132;6.574;2023-04-25T00:05:50;11.40;;;1.85;;
57752;SDS011;43583;53.132;6.574;2023-04-25T00:08:16;6.85;;;1.08;;
57752;SDS011;43583;53.132;6.574;2023-04-25T00:10:42;8.13;;;1.17;;
57752;SDS011;43583;53.132;6.574;2023-04-25T00:13:08;13.98;;;1.38;;
57752;SDS011;43583;53.132;6.574;2023-04-25T00:15:34;15.95;;;2.13;;
57752;SDS011;43583;53.132;6.574;2023-04-25T00:18:01;13.07;;;2.50;;
57752;SDS011;43583;53.132;6.574;2023-04-25T00:20:26;11.27;;;1.00;;
57752;SDS011;43583;53.132;6.574;2023-04-25T00:22:52;10.27;;;1.58;;
57752;SDS011;43583;53.132;6.574;2023-04-25T00:25:20;10.80;;;1.58;;
57752;SDS011;43583;53.132;6.574;2023-04-25T00:27:46;7.97;;;1.38;;
57752;SDS011;43583;53.132;6.574;2023-04-25T00:30:12;12.52;;;1.70;;
57752;SDS011;43583;53.132;6.574;2023-04-25T00:32:38;11.70;;;1.60;;
57752;SDS011;43583;53.132;6.574;2023-04-25T00:35:03;18.35;;;1.83;;
57752;SDS011;43583;53.132;6.574;2023-04-25T00:37:29;7.72;;;1.60;;
57752;SDS011;43583;53.132;6.574;2023-04-25T00:39:56;12.82;;;1.58;;
57752;SDS011;43583;53.132;6.574;2023-04-25T00:42:22;13.65;;;3.03;;
57752;SDS011;43583;53.132;6.574;2023-04-25T00:44:49;11.02;;;1.73;;
57752;SDS011;43583;53.132;6.574;2023-04-25T00:47:17;9.75;;;1.27;;
57752;SDS011;43583;53.132;6.574;2023-04-25T00:49:42;7.70;;;1.33;;
57752;SDS011;43583;53.132;6.574;2023-04-25T00:52:08;7.15;;;0.90;;
57752;SDS011;43583;53.132;6.574;2023-04-25T00:54:34;8.75;;;1.02;;
57752;SDS011;43583;53.132;6.574;2023-04-25T00:57:00;6.57;;;0.70;;
57752;SDS011;43583;53.132;6.574;2023-04-25T00:59:26;7.72;;;0.65;;
57752;SDS011;43583;53.132;6.574;2023-04-25T01:01:53;7.65;;;0.60;;
57752;SDS011;43583;53.132;6.574;2023-04-25T01:04:18;13.30;;;1.25;;
57752;SDS011;43583;53.132;6.574;2023-04-25T01:06:45;8.05;;;1.25;;
57752;SDS011;43583;53.132;6.574;2023-04-25T01:09:11;5.63;;;1.67;;
57752;SDS011;43583;53.132;6.574;2023-04-25T01:11:38;4.80;;;0.88;;
57752;SDS011;43583;53.132;6.574;2023-04-25T01:14:05;7.68;;;1.35;;
57752;SDS011;43583;53.132;6.574;2023-04-25T01:16:32;7.43;;;1.05;;
57752;SDS011;43583;53.132;6.574;2023-04-25T01:18:58;7.13;;;1.15;;
57752;SDS011;43583;53.132;6.574;2023-04-25T01:21:24;14.07;;;1.35;;
57752;SDS011;43583;53.132;6.574;2023-04-25T01:23:52;10.00;;;0.50;;
57752;SDS011;43583;53.132;6.574;2023-04-25T01:26:19;6.70;;;0.82;;
57752;SDS011;43583;53.132;6.574;2023-04-25T01:28:46;7.93;;;1.73;;
57752;SDS011;43583;53.132;6.574;2023-04-25T01:31:13;6.00;;;1.05;;
57752;SDS011;43583;53.132;6.574;2023-04-25T01:33:40;5.90;;;0.93;;
57752;SDS011;43583;53.132;6.574;2023-04-25T01:36:06;6.80;;;0.50;;
57752;SDS011;43583;53.132;6.574;2023-04-25T01:38:32;8.77;;;1.08;;
57752;SDS011;43583;53.132;6.574;2023-04-25T01:40:58;7.60;;;0.95;;
57752;SDS011;43583;53.132;6.574;2023-04-25T01:43:23;11.77;;;1.38;;
57752;SDS011;43583;53.132;6.574;2023-04-25T01:45:50;5.50;;;0.57;;
57752;SDS011;43583;53.132;6.574;2023-04-25T01:48:16;5.63;;;0.95;;
57752;SDS011;43583;53.132;6.574;2023-04-25T01:50:42;7.70;;;0.30;;
57752;SDS011;43583;53.132;6.574;2023-04-25T01:53:09;3.85;;;1.17;;
57752;SDS011;43583;53.132;6.574;2023-04-25T01:55:36;5.22;;;1.17;;
57752;SDS011;43583;53.132;6.574;2023-04-25T01:58:02;4.32;;;0.40;;
57752;SDS011;43583;53.132;6.574;2023-04-25T02:00:28;4.65;;;0.50;;
57752;SDS011;43583;53.132;6.574;2023-04-25T02:02:57;13.25;;;0.82;;
57752;SDS011;43583;53.132;6.574;2023-04-25T02:05:23;5.43;;;0.52;;
57752;SDS011;43583;53.132;6.574;2023-04-25T02:07:49;7.22;;;1.40;;
57752;SDS011;43583;53.132;6.574;2023-04-25T02:10:14;4.13;;;0.77;;
57752;SDS011;43583;53.132;6.574;2023-04-25T02:12:40;8.38;;;0.80;;
57752;SDS011;43583;53.132;6.574;2023-04-25T02:15:05;6.10;;;0.50;;
57752;SDS011;43583;53.132;6.574;2023-04-25T02:17:31;8.07;;;0.65;;
57752;SDS011;43583;53.132;6.574;2023-04-25T02:19:57;6.75;;;1.30;;
57752;SDS011;43583;53.132;6.574;2023-04-25T02:22:23;7.68;;;0.77;;
57752;SDS011;43583;53.132;6.574;2023-04-25T02:24:48;6.65;;;0.40;;
57752;SDS011;43583;53.132;6.574;2023-04-25T02:27:14;11.40;;;0.80;;
57752;SDS011;43583;53.132;6.574;2023-04-25T02:29:40;7.28;;;0.50;;
57752;SDS011;43583;53.132;6.574;2023-04-25T02:32:06;4.95;;;0.40;;
57752;SDS011;43583;53.132;6.574;2023-04-25T02:34:31;4.65;;;0.68;;
57752;SDS011;43583;53.132;6.574;2023-04-25T02:36:57;10.50;;;1.00;;
57752;SDS011;43583;53.132;6.574;2023-04-25T02:39:22;6.07;;;0.30;;
57752;SDS011;43583;53.132;6.574;2023-04-25T02:41:50;4.80;;;0.40;;
57752;SDS011;43583;53.132;6.574;2023-04-25T02:44:16;11.30;;;0.80;;
57752;SDS011;43583;53.132;6.574;2023-04-25T02:46:42;8.30;;;0.40;;
57752;SDS011;43583;53.132;6.574;2023-04-25T02:49:07;8.05;;;1.02;;
57752;SDS011;43583;53.132;6.574;2023-04-25T02:51:33;7.78;;;0.60;;
57752;SDS011;43583;53.132;6.574;2023-04-25T02:53:58;7.07;;;0.52;;
57752;SDS011;43583;53.132;6.574;2023-04-25T02:56:24;7.53;;;0.52;;
57752;SDS011;43583;53.132;6.574;2023-04-25T02:58:51;6.40;;;0.90;;
57752;SDS011;43583;53.132;6.574;2023-04-25T03:01:17;5.22;;;0.63;;
57752;SDS011;43583;53.132;6.574;2023-04-25T03:03:43;4.72;;;0.57;;
57752;SDS011;43583;53.132;6.574;2023-04-25T03:06:08;4.88;;;0.30;;
57752;SDS011;43583;53.132;6.574;2023-04-25T03:08:34;8.75;;;1.67;;
57752;SDS011;43583;53.132;6.574;2023-04-25T03:11:00;9.20;;;0.68;;
57752;SDS011;43583;53.132;6.574;2023-04-25T03:13:26;3.38;;;0.57;;
57752;SDS011;43583;53.132;6.574;2023-04-25T03:15:52;21.75;;;1.58;;
57752;SDS011;43583;53.132;6.574;2023-04-25T03:18:18;7.05;;;0.77;;
57752;SDS011;43583;53.132;6.574;2023-04-25T03:20:43;4.70;;;0.38;;
57752;SDS011;43583;53.132;6.574;2023-04-25T03:23:09;9.40;;;0.82;;
57752;SDS011;43583;53.132;6.574;2023-04-25T03:25:34;9.45;;;0.30;;
57752;SDS011;43583;53.132;6.574;2023-04-25T03:28:00;3.97;;;0.25;;
57752;SDS011;43583;53.132;6.574;2023-04-25T03:30:26;8.30;;;1.38;;
57752;SDS011;43583;53.132;6.574;2023-04-25T03:32:51;6.57;;;0.60;;
57752;SDS011;43583;53.132;6.574;2023-04-25T03:35:17;3.70;;;0.50;;
57752;SDS011;43583;53.132;6.574;2023-04-25T03:37:43;4.57;;;0.20;;
57752;SDS011;43583;53.132;6.574;2023-04-25T03:40:10;6.18;;;0.68;;
57752;SDS011;43583;53.132;6.574;2023-04-25T03:42:36;5.40;;;0.32;;
57752;SDS011;43583;53.132;6.574;2023-04-25T03:45:02;4.25;;;0.20;;
57752;SDS011;43583;53.132;6.574;2023-04-25T03:47:27;5.45;;;0.40;;
57752;SDS011;43583;53.132;6.574;2023-04-25T03:49:53;5.63;;;0.20;;
57752;SDS011;43583;53.132;6.574;2023-04-25T03:52:19;9.27;;;1.27;;
57752;SDS011;43583;53.132;6.574;2023-04-25T03:54:45;3.65;;;0.40;;
57752;SDS011;43583;53.132;6.574;2023-04-25T03:57:11;5.97;;;0.63;;
57752;SDS011;43583;53.132;6.574;2023-04-25T03:59:36;7.18;;;0.63;;
57752;SDS011;43583;53.132;6.574;2023-04-25T04:02:02;3.70;;;0.35;;
57752;SDS011;43583;53.132;6.574;2023-04-25T04:04:28;2.55;;;0.20;;
57752;SDS011;43583;53.132;6.574;2023-04-25T04:06:53;2.20;;;0.20;;
57752;SDS011;43583;53.132;6.574;2023-04-25T04:09:19;14.55;;;1.05;;
57752;SDS011;43583;53.132;6.574;2023-04-25T04:11:45;7.07;;;1.10;;
57752;SDS011;43583;53.132;6.574;2023-04-25T04:14:11;2.13;;;0.40;;
57752;SDS011;43583;53.132;6.574;2023-04-25T04:16:36;9.65;;;0.50;;
57752;SDS011;43583;53.132;6.574;2023-04-25T04:19:02;6.05;;;0.70;;
57752;SDS011;43583;53.132;6.574;2023-04-25T04:21:28;10.32;;;0.93;;
57752;SDS011;43583;53.132;6.574;2023-04-25T04:23:53;5.50;;;0.30;;
57752;SDS011;43583;53.132;6.574;2023-04-25T04:26:19;3.40;;;0.40;;
57752;SDS011;43583;53.132;6.574;2023-04-25T04:28:48;5.47;;;0.40;;
57752;SDS011;43583;53.132;6.574;2023-04-25T04:31:19;7.15;;;0.25;;
57752;SDS011;43583;53.132;6.574;2023-04-25T04:33:46;6.38;;;1.00;;
57752;SDS011;43583;53.132;6.574;2023-04-25T04:36:12;6.60;;;0.30;;
57752;SDS011;43583;53.132;6.574;2023-04-25T04:38:38;8.00;;;1.63;;
57752;SDS011;43583;53.132;6.574;2023-04-25T04:41:05;10.00;;;0.30;;
57752;SDS011;43583;53.132;6.574;2023-04-25T04:43:31;6.35;;;0.45;;
57752;SDS011;43583;53.132;6.574;2023-04-25T04:45:58;4.05;;;0.40;;
57752;SDS011;43583;53.132;6.574;2023-04-25T04:48:25;3.45;;;0.63;;
57752;SDS011;43583;53.132;6.574;2023-04-25T04:50:51;5.82;;;0.73;;
57752;SDS011;43583;53.132;6.574;2023-04-25T04:53:17;4.93;;;0.93;;
57752;SDS011;43583;53.132;6.574;2023-04-25T04:55:42;11.13;;;0.77;;
57752;SDS011;43583;53.132;6.574;2023-04-25T04:58:08;11.07;;;0.60;;
57752;SDS011;43583;53.132;6.574;2023-04-25T05:00:34;5.22;;;0.57;;
57752;SDS011;43583;53.132;6.574;2023-04-25T05:02:59;5.20;;;0.70;;
57752;SDS011;43583;53.132;6.574;2023-04-25T05:05:25;7.88;;;0.43;;
57752;SDS011;43583;53.132;6.574;2023-04-25T05:07:50;6.07;;;0.77;;
57752;SDS011;43583;53.132;6.574;2023-04-25T05:10:19;9.32;;;1.25;;
57752;SDS011;43583;53.132;6.574;2023-04-25T05:12:45;7.63;;;0.43;;
57752;SDS011;43583;53.132;6.574;2023-04-25T05:15:11;4.32;;;0.50;;
57752;SDS011;43583;53.132;6.574;2023-04-25T05:17:37;3.88;;;0.38;;
57752;SDS011;43583;53.132;6.574;2023-04-25T05:20:04;7.60;;;0.50;;
57752;SDS011;43583;53.132;6.574;2023-04-25T05:22:30;7.72;;;0.38;;
57752;SDS011;43583;53.132;6.574;2023-04-25T05:24:56;6.18;;;0.30;;
57752;SDS011;43583;53.132;6.574;2023-04-25T05:27:22;6.57;;;0.60;;
57752;SDS011;43583;53.132;6.574;2023-04-25T05:29:47;4.78;;;0.70;;
57752;SDS011;43583;53.132;6.574;2023-04-25T05:32:13;10.75;;;0.85;;
57752;SDS011;43583;53.132;6.574;2023-04-25T05:34:38;8.50;;;0.60;;
57752;SDS011;43583;53.132;6.574;2023-04-25T05:37:05;6.07;;;0.30;;
57752;SDS011;43583;53.132;6.574;2023-04-25T05:39:31;5.00;;;0.77;;
57752;SDS011;43583;53.132;6.574;2023-04-25T05:41:56;7.80;;;0.63;;
57752;SDS011;43583;53.132;6.574;2023-04-25T05:44:22;4.43;;;0.57;;
57752;SDS011;43583;53.132;6.574;2023-04-25T05:46:48;6.93;;;0.20;;
57752;SDS011;43583;53.132;6.574;2023-04-25T05:49:14;6.20;;;0.30;;
57752;SDS011;43583;53.132;6.574;2023-04-25T05:51:40;2.67;;;0.40;;
57752;SDS011;43583;53.132;6.574;2023-04-25T05:54:05;5.70;;;0.20;;
57752;SDS011;43583;53.132;6.574;2023-04-25T05:56:31;3.22;;;0.30;;
57752;SDS011;43583;53.132;6.574;2023-04-25T05:58:56;6.45;;;0.85;;
57752;SDS011;43583;53.132;6.574;2023-04-25T06:01:22;3.25;;;0.30;;
57752;SDS011;43583;53.132;6.574;2023-04-25T06:03:51;4.05;;;0.82;;
57752;SDS011;43583;53.132;6.574;2023-04-25T06:06:17;5.15;;;0.43;;
57752;SDS011;43583;53.132;6.574;2023-04-25T06:08:43;4.65;;;0.93;;
57752;SDS011;43583;53.132;6.574;2023-04-25T06:11:11;6.30;;;0.50;;
57752;SDS011;43583;53.132;6.574;2023-04-25T06:13:37;5.53;;;0.77;;
57752;SDS011;43583;53.132;6.574;2023-04-25T06:16:02;2.47;;;0.40;;
57752;SDS011;43583;53.132;6.574;2023-04-25T06:18:28;4.13;;;0.50;;
57752;SDS011;43583;53.132;6.574;2023-04-25T06:20:54;5.85;;;0.30;;
57752;SDS011;43583;53.132;6.574;2023-04-25T06:23:20;5.55;;;0.20;;
57752;SDS011;43583;53.132;6.574;2023-04-25T06:25:45;2.35;;;0.20;;
57752;SDS011;43583;53.132;6.574;2023-04-25T06:28:11;4.40;;;0.30;;
57752;SDS011;43583;53.132;6.574;2023-04-25T06:30:36;2.13;;;0.20;;
57752;SDS011;43583;53.132;6.574;2023-04-25T06:33:02;3.92;;;0.20;;
57752;SDS011;43583;53.132;6.574;2023-04-25T06:35:27;5.50;;;0.43;;
57752;SDS011;43583;53.132;6.574;2023-04-25T06:37:53;2.33;;;0.43;;
57752;SDS011;43583;53.132;6.574;2023-04-25T06:40:19;7.50;;;0.45;;
57752;SDS011;43583;53.132;6.574;2023-04-25T06:42:44;1.98;;;0.22;;
57752;SDS011;43583;53.132;6.574;2023-04-25T06:45:10;4.07;;;0.10;;
57752;SDS011;43583;53.132;6.574;2023-04-25T06:47:36;4.88;;;0.32;;
57752;SDS011;43583;53.132;6.574;2023-04-25T06:50:02;4.55;;;0.47;;
57752;SDS011;43583;53.132;6.574;2023-04-25T06:52:27;3.92;;;0.10;;
57752;SDS011;43583;53.132;6.574;2023-04-25T06:54:53;3.13;;;0.20;;
57752;SDS011;43583;53.132;6.574;2023-04-25T06:57:19;2.58;;;0.10;;
57752;SDS011;43583;53.132;6.574;2023-04-25T06:59:44;2.03;;;0.10;;
57752;SDS011;43583;53.132;6.574;2023-04-25T07:02:10;2.80;;;0.20;;
57752;SDS011;43583;53.132;6.574;2023-04-25T07:04:35;5.97;;;1.15;;
57752;SDS011;43583;53.132;6.574;2023-04-25T07:07:01;4.45;;;0.20;;
57752;SDS011;43583;53.132;6.574;2023-04-25T07:09:28;2.22;;;0.10;;
57752;SDS011;43583;53.132;6.574;2023-04-25T07:11:54;6.70;;;0.82;;
57752;SDS011;43583;53.132;6.574;2023-04-25T07:14:19;3.95;;;0.30;;
57752;SDS011;43583;53.132;6.574;2023-04-25T07:16:45;4.57;;;0.20;;
57752;SDS011;43583;53.132;6.574;2023-04-25T07:19:11;3.05;;;0.35;;
57752;SDS011;43583;53.132;6.574;2023-04-25T07:21:37;2.15;;;0.10;;
57752;SDS011;43583;53.132;6.574;2023-04-25T07:24:03;5.60;;;0.22;;
57752;SDS011;43583;53.132;6.574;2023-04-25T07:26:28;2.35;;;0.63;;
57752;SDS011;43583;53.132;6.574;2023-04-25T07:28:54;4.15;;;0.10;;
57752;SDS011;43583;53.132;6.574;2023-04-25T07:31:20;2.53;;;0.10;;
57752;SDS011;43583;53.132;6.574;2023-04-25T07:33:46;5.28;;;0.55;;
57752;SDS011;43583;53.132;6.574;2023-04-25T07:36:12;2.42;;;0.45;;
57752;SDS011;43583;53.132;6.574;2023-04-25T07:38:38;3.72;;;0.30;;
57752;SDS011;43583;53.132;6.574;2023-04-25T07:41:04;2.50;;;0.20;;
57752;SDS011;43583;53.132;6.574;2023-04-25T07:43:30;2.28;;;0.10;;
57752;SDS011;43583;53.132;6.574;2023-04-25T07:45:56;4.60;;;0.10;;
57752;SDS011;43583;53.132;6.574;2023-04-25T07:48:22;4.38;;;0.20;;
57752;SDS011;43583;53.132;6.574;2023-04-25T07:50:48;4.63;;;0.10;;
57752;SDS011;43583;53.132;6.574;2023-04-25T07:53:13;5.93;;;0.35;;
57752;SDS011;43583;53.132;6.574;2023-04-25T07:55:39;2.65;;;0.10;;
57752;SDS011;43583;53.132;6.574;2023-04-25T07:58:08;1.25;;;0.10;;
57752;SDS011;43583;53.132;6.574;2023-04-25T08:00:35;2.83;;;0.15;;
57752;SDS011;43583;53.132;6.574;2023-04-25T08:03:01;2.28;;;0.05;;
57752;SDS011;43583;53.132;6.574;2023-04-25T08:05:27;1.98;;;0.00;;
57752;SDS011;43583;53.132;6.574;2023-04-25T08:07:53;0.85;;;0.00;;
57752;SDS011;43583;53.132;6.574;2023-04-25T08:10:19;3.47;;;0.10;;
57752;SDS011;43583;53.132;6.574;2023-04-25T08:12:45;1.00;;;0.10;;
57752;SDS011;43583;53.132;6.574;2023-04-25T08:15:11;3.42;;;0.10;;
57752;SDS011;43583;53.132;6.574;2023-04-25T08:17:38;3.00;;;0.32;;
57752;SDS011;43583;53.132;6.574;2023-04-25T08:20:04;1.98;;;0.10;;
57752;SDS011;43583;53.132;6.574;2023-04-25T08:22:30;0.65;;;0.00;;
57752;SDS011;43583;53.132;6.574;2023-04-25T08:24:59;0.50;;;0.00;;
57752;SDS011;43583;53.132;6.574;2023-04-25T08:27:25;0.52;;;0.00;;
57752;SDS011;43583;53.132;6.574;2023-04-25T08:29:51;0.85;;;0.00;;
57752;SDS011;43583;53.132;6.574;2023-04-25T08:32:16;1.65;;;0.08;;
57752;SDS011;43583;53.132;6.574;2023-04-25T08:34:43;0.30;;;0.00;;
57752;SDS011;43583;53.132;6.574;2023-04-25T08:37:09;2.28;;;0.00;;
57752;SDS011;43583;53.132;6.574;2023-04-25T08:39:35;1.55;;;0.10;;
57752;SDS011;43583;53.132;6.574;2023-04-25T08:42:02;2.35;;;0.10;;
57752;SDS011;43583;53.132;6.574;2023-04-25T08:44:33;1.95;;;0.03;;
57752;SDS011;43583;53.132;6.574;2023-04-25T08:47:01;1.75;;;0.20;;
57752;SDS011;43583;53.132;6.574;2023-04-25T08:49:31;1.80;;;0.05;;
57752;SDS011;43583;53.132;6.574;2023-04-25T08:52:02;1.10;;;0.15;;
57752;SDS011;43583;53.132;6.574;2023-04-25T08:54:31;0.75;;;0.13;;
57752;SDS011;43583;53.132;6.574;2023-04-25T08:56:57;0.40;;;0.00;;
57752;SDS011;43583;53.132;6.574;2023-04-25T08:59:29;1.92;;;0.10;;
57752;SDS011;43583;53.132;6.574;2023-04-25T09:01:55;2.85;;;0.00;;
57752;SDS011;43583;53.132;6.574;2023-04-25T09:04:21;1.45;;;0.00;;
57752;SDS011;43583;53.132;6.574;2023-04-25T09:06:47;2.35;;;0.00;;
57752;SDS011;43583;53.132;6.574;2023-04-25T09:09:13;1.08;;;0.00;;
57752;SDS011;43583;53.132;6.574;2023-04-25T09:11:39;0.35;;;0.00;;
57752;SDS011;43583;53.132;6.574;2023-04-25T09:14:15;0.55;;;0.10;;
57752;SDS011;43583;53.132;6.574;2023-04-25T09:19:28;0.63;;;0.05;;
57752;SDS011;43583;53.132;6.574;2023-04-25T09:21:59;1.10;;;0.00;;
57752;SDS011;43583;53.132;6.574;2023-04-25T09:27:18;1.92;;;0.10;;
57752;SDS011;43583;53.132;6.574;2023-04-25T09:29:45;1.85;;;0.10;;
57752;SDS011;43583;53.132;6.574;2023-04-25T09:34:47;3.70;;;0.10;;
57752;SDS011;43583;53.132;6.574;2023-04-25T09:37:28;2.78;;;0.20;;
57752;SDS011;43583;53.132;6.574;2023-04-25T09:42:23;1.23;;;0.10;;
57752;SDS011;43583;53.132;6.574;2023-04-25T09:44:51;4.95;;;0.17;;
57752;SDS011;43583;53.132;6.574;2023-04-25T09:47:18;2.05;;;0.10;;
57752;SDS011;43583;53.132;6.574;2023-04-25T09:49:46;3.53;;;0.22;;
57752;SDS011;43583;53.132;6.574;2023-04-25T09:52:19;9.38;;;0.38;;
57752;SDS011;43583;53.132;6.574;2023-04-25T09:54:46;3.97;;;0.20;;
57752;SDS011;43583;53.132;6.574;2023-04-25T10:02:13;3.40;;;0.20;;
57752;SDS011;43583;53.132;6.574;2023-04-25T10:04:40;2.35;;;0.43;;
57752;SDS011;43583;53.132;6.574;2023-04-25T10:07:07;3.33;;;0.10;;
57752;SDS011;43583;53.132;6.574;2023-04-25T10:09:34;2.65;;;0.30;;
57752;SDS011;43583;53.132;6.574;2023-04-25T10:12:04;3.08;;;0.17;;
57752;SDS011;43583;53.132;6.574;2023-04-25T10:14:32;3.50;;;0.38;;
57752;SDS011;43583;53.132;6.574;2023-04-25T10:16:58;2.97;;;0.63;;
57752;SDS011;43583;53.132;6.574;2023-04-25T10:19:25;2.80;;;0.60;;
57752;SDS011;43583;53.132;6.574;2023-04-25T10:22:14;5.68;;;0.20;;
57752;SDS011;43583;53.132;6.574;2023-04-25T10:24:46;3.83;;;0.50;;
57752;SDS011;43583;53.132;6.574;2023-04-25T10:27:12;1.90;;;0.40;;
57752;SDS011;43583;53.132;6.574;2023-04-25T10:29:38;4.05;;;0.22;;
57752;SDS011;43583;53.132;6.574;2023-04-25T10:32:08;5.50;;;0.20;;
57752;SDS011;43583;53.132;6.574;2023-04-25T10:34:38;6.85;;;0.30;;
57752;SDS011;43583;53.132;6.574;2023-04-25T10:37:10;2.55;;;0.10;;
57752;SDS011;43583;53.132;6.574;2023-04-25T10:39:37;7.32;;;0.40;;
57752;SDS011;43583;53.132;6.574;2023-04-25T10:42:05;2.58;;;0.20;;
57752;SDS011;43583;53.132;6.574;2023-04-25T10:44:31;1.13;;;0.20;;
57752;SDS011;43583;53.132;6.574;2023-04-25T10:47:00;2.65;;;0.20;;
57752;SDS011;43583;53.132;6.574;2023-04-25T10:49:34;1.48;;;0.13;;
57752;SDS011;43583;53.132;6.574;2023-04-25T10:54:48;3.90;;;0.30;;
57752;SDS011;43583;53.132;6.574;2023-04-25T10:57:30;3.92;;;0.30;;
57752;SDS011;43583;53.132;6.574;2023-04-25T11:00:09;3.03;;;0.30;;
57752;SDS011;43583;53.132;6.574;2023-04-25T11:05:10;2.70;;;0.13;;
57752;SDS011;43583;53.132;6.574;2023-04-25T11:07:47;4.38;;;0.20;;
57752;SDS011;43583;53.132;6.574;2023-04-25T11:10:16;1.42;;;0.20;;
57752;SDS011;43583;53.132;6.574;2023-04-25T11:12:43;4.78;;;0.10;;
57752;SDS011;43583;53.132;6.574;2023-04-25T11:15:09;4.03;;;0.38;;
57752;SDS011;43583;53.132;6.574;2023-04-25T11:17:44;4.00;;;0.40;;
57752;SDS011;43583;53.132;6.574;2023-04-25T11:20:12;5.30;;;0.20;;
57752;SDS011;43583;53.132;6.574;2023-04-25T11:22:40;4.18;;;0.13;;
57752;SDS011;43583;53.132;6.574;2023-04-25T11:25:07;3.83;;;0.30;;
57752;SDS011;43583;53.132;6.574;2023-04-25T11:27:34;2.75;;;0.20;;
57752;SDS011;43583;53.132;6.574;2023-04-25T11:30:16;3.13;;;0.10;;
57752;SDS011;43583;53.132;6.574;2023-04-25T11:35:17;4.78;;;0.47;;
57752;SDS011;43583;53.132;6.574;2023-04-25T11:37:48;2.13;;;0.10;;
57752;SDS011;43583;53.132;6.574;2023-04-25T11:40:17;3.30;;;0.40;;
57752;SDS011;43583;53.132;6.574;2023-04-25T11:42:46;2.40;;;0.60;;
57752;SDS011;43583;53.132;6.574;2023-04-25T11:45:13;2.65;;;0.30;;
57752;SDS011;43583;53.132;6.574;2023-04-25T11:47:39;3.28;;;0.25;;
57752;SDS011;43583;53.132;6.574;2023-04-25T11:50:08;2.90;;;0.20;;
57752;SDS011;43583;53.132;6.574;2023-04-25T11:52:38;2.78;;;0.30;;
57752;SDS011;43583;53.132;6.574;2023-04-25T11:55:12;2.60;;;0.20;;
57752;SDS011;43583;53.132;6.574;2023-04-25T11:57:42;4.63;;;0.45;;
57752;SDS011;43583;53.132;6.574;2023-04-25T12:00:15;2.60;;;0.20;;
57752;SDS011;43583;53.132;6.574;2023-04-25T12:02:43;1.42;;;0.10;;
57752;SDS011;43583;53.132;6.574;2023-04-25T12:05:12;2.35;;;0.20;;
57752;SDS011;43583;53.132;6.574;2023-04-25T12:07:40;6.13;;;0.10;;
57752;SDS011;43583;53.132;6.574;2023-04-25T12:10:12;4.00;;;0.63;;
57752;SDS011;43583;53.132;6.574;2023-04-25T12:12:43;2.72;;;0.25;;
57752;SDS011;43583;53.132;6.574;2023-04-25T12:17:41;2.25;;;0.20;;
57752;SDS011;43583;53.132;6.574;2023-04-25T12:20:08;4.28;;;0.40;;
57752;SDS011;43583;53.132;6.574;2023-04-25T12:22:35;2.35;;;0.10;;
57752;SDS011;43583;53.132;6.574;2023-04-25T12:25:02;1.58;;;0.10;;
57752;SDS011;43583;53.132;6.574;2023-04-25T12:27:30;2.80;;;0.20;;
57752;SDS011;43583;53.132;6.574;2023-04-25T12:29:57;2.30;;;0.10;;
57752;SDS011;43583;53.132;6.574;2023-04-25T12:32:24;3.17;;;0.22;;
57752;SDS011;43583;53.132;6.574;2023-04-25T12:34:51;4.78;;;0.10;;
57752;SDS011;43583;53.132;6.574;2023-04-25T12:37:17;4.90;;;0.10;;
57752;SDS011;43583;53.132;6.574;2023-04-25T12:39:42;2.05;;;0.10;;
57752;SDS011;43583;53.132;6.574;2023-04-25T12:42:08;3.42;;;0.20;;
57752;SDS011;43583;53.132;6.574;2023-04-25T12:44:36;1.92;;;0.10;;
57752;SDS011;43583;53.132;6.574;2023-04-25T12:47:03;8.55;;;0.40;;
57752;SDS011;43583;53.132;6.574;2023-04-25T12:49:28;1.77;;;0.20;;
57752;SDS011;43583;53.132;6.574;2023-04-25T12:51:54;6.10;;;0.20;;
57752;SDS011;43583;53.132;6.574;2023-04-25T12:54:20;1.88;;;0.15;;
57752;SDS011;43583;53.132;6.574;2023-04-25T12:56:46;2.83;;;0.32;;
57752;SDS011;43583;53.132;6.574;2023-04-25T12:59:12;5.00;;;0.20;;
57752;SDS011;43583;53.132;6.574;2023-04-25T13:01:38;3.55;;;0.30;;
57752;SDS011;43583;53.132;6.574;2023-04-25T13:04:03;3.45;;;0.15;;
57752;SDS011;43583;53.132;6.574;2023-04-25T13:06:29;4.75;;;0.10;;
57752;SDS011;43583;53.132;6.574;2023-04-25T13:08:55;1.23;;;0.10;;
57752;SDS011;43583;53.132;6.574;2023-04-25T13:11:21;4.05;;;0.38;;
57752;SDS011;43583;53.132;6.574;2023-04-25T13:13:47;5.32;;;0.20;;
57752;SDS011;43583;53.132;6.574;2023-04-25T13:16:12;2.70;;;0.20;;
57752;SDS011;43583;53.132;6.574;2023-04-25T13:18:39;2.35;;;0.10;;
57752;SDS011;43583;53.132;6.574;2023-04-25T13:21:05;4.30;;;0.40;;
57752;SDS011;43583;53.132;6.574;2023-04-25T13:23:31;3.50;;;0.17;;
57752;SDS011;43583;53.132;6.574;2023-04-25T13:25:56;2.88;;;0.10;;
57752;SDS011;43583;53.132;6.574;2023-04-25T13:28:23;3.78;;;0.75;;
57752;SDS011;43583;53.132;6.574;2023-04-25T13:30:49;4.95;;;0.63;;
57752;SDS011;43583;53.132;6.574;2023-04-25T13:33:15;4.15;;;0.20;;
57752;SDS011;43583;53.132;6.574;2023-04-25T13:35:41;5.40;;;0.30;;
57752;SDS011;43583;53.132;6.574;2023-04-25T13:38:07;1.77;;;0.10;;
57752;SDS011;43583;53.132;6.574;2023-04-25T13:40:33;3.45;;;0.22;;
57752;SDS011;43583;53.132;6.574;2023-04-25T13:42:59;4.60;;;0.63;;
57752;SDS011;43583;53.132;6.574;2023-04-25T13:45:26;4.47;;;0.15;;
57752;SDS011;43583;53.132;6.574;2023-04-25T13:47:52;4.50;;;0.20;;
57752;SDS011;43583;53.132;6.574;2023-04-25T13:50:17;1.77;;;0.30;;
57752;SDS011;43583;53.132;6.574;2023-04-25T13:52:43;3.55;;;0.82;;
57752;SDS011;43583;53.132;6.574;2023-04-25T13:55:10;1.73;;;0.10;;
57752;SDS011;43583;53.132;6.574;2023-04-25T13:57:38;4.85;;;0.50;;
57752;SDS011;43583;53.132;6.574;2023-04-25T14:00:04;7.93;;;0.30;;
57752;SDS011;43583;53.132;6.574;2023-04-25T14:02:37;3.47;;;0.10;;
57752;SDS011;43583;53.132;6.574;2023-04-25T14:05:03;3.05;;;0.20;;
57752;SDS011;43583;53.132;6.574;2023-04-25T14:07:30;1.45;;;0.40;;
57752;SDS011;43583;53.132;6.574;2023-04-25T14:09:56;2.67;;;0.10;;
57752;SDS011;43583;53.132;6.574;2023-04-25T14:12:24;3.63;;;0.28;;
57752;SDS011;43583;53.132;6.574;2023-04-25T14:14:50;5.00;;;0.10;;
57752;SDS011;43583;53.132;6.574;2023-04-25T14:17:16;5.63;;;0.10;;
57752;SDS011;43583;53.132;6.574;2023-04-25T14:19:41;2.05;;;0.20;;
57752;SDS011;43583;53.132;6.574;2023-04-25T14:22:10;2.35;;;0.15;;
57752;SDS011;43583;53.132;6.574;2023-04-25T14:24:39;3.33;;;0.75;;
57752;SDS011;43583;53.132;6.574;2023-04-25T14:27:04;7.05;;;0.57;;
57752;SDS011;43583;53.132;6.574;2023-04-25T14:29:30;6.88;;;0.20;;
57752;SDS011;43583;53.132;6.574;2023-04-25T14:31:56;3.22;;;0.28;;
57752;SDS011;43583;53.132;6.574;2023-04-25T14:34:29;3.63;;;0.10;;
57752;SDS011;43583;53.132;6.574;2023-04-25T14:36:55;5.30;;;0.10;;
57752;SDS011;43583;53.132;6.574;2023-04-25T14:39:33;2.28;;;0.17;;
57752;SDS011;43583;53.132;6.574;2023-04-25T14:42:02;4.22;;;0.47;;
57752;SDS011;43583;53.132;6.574;2023-04-25T14:44:28;2.05;;;0.10;;
57752;SDS011;43583;53.132;6.574;2023-04-25T14:46:54;3.25;;;0.20;;
57752;SDS011;43583;53.132;6.574;2023-04-25T14:49:20;3.58;;;0.52;;
57752;SDS011;43583;53.132;6.574;2023-04-25T14:51:46;5.78;;;0.30;;
57752;SDS011;43583;53.132;6.574;2023-04-25T14:54:11;1.67;;;0.15;;
57752;SDS011;43583;53.132;6.574;2023-04-25T14:56:38;5.38;;;0.43;;
57752;SDS011;43583;53.132;6.574;2023-04-25T14:59:03;4.97;;;0.25;;
57752;SDS011;43583;53.132;6.574;2023-04-25T15:01:29;3.42;;;0.20;;
57752;SDS011;43583;53.132;6.574;2023-04-25T15:03:55;4.03;;;0.52;;
57752;SDS011;43583;53.132;6.574;2023-04-25T15:06:20;6.43;;;0.68;;
57752;SDS011;43583;53.132;6.574;2023-04-25T15:08:49;6.78;;;0.65;;